KTYS

Mc Ghee Tyson Airport

Knoxville, Tennessee, USA
KTYS 221741Z 2218/2318 20008KT P6SM VCSH FEW018 BKN023 OVC050 TEMPO 2218/2222 4SM -TSRA BR SCT015 OVC023CB FM230100 24004KT P6SM BKN040 FM230800 00000KT 6SM BR OVC020 FM231400 VRB04KT P6SM BKN025
Issued Valid From Valid To
Jul-22 @ 17:41 UTC
(3 hours ago)
Jul-22 @ 18:00 UTC
(2 hours ago)
Jul-23 @ 18:00 UTC
(in 22 hours)
Jul-22 @ 18:00 to Jul-23 @ 01:00
KTYS 221741Z 2218/2318 20008KT P6SM VCSH FEW018 BKN023 OVC050
Wind Visibility Clouds
200° at 8 knots Greater than 6 miles
  • Few at 1,800' AGL
  • Broken at 2,300' AGL
  • Overcast at 5,000' AGL
Temporary Jul-22 @ 18:00 to Jul-22 @ 22:00
TEMPO 2218/2222 4SM -TSRA BR SCT015 OVC023CB
Visibility Clouds Conditions
4 miles
  • Scattered at 1,500' AGL
  • Overcast at 2,300' AGL
  • Light Thunderstorm
  • Light Rain
  • Mist
From Jul-23 @ 01:00 to Jul-23 @ 08:00
FM230100 24004KT P6SM BKN040
Wind Visibility Clouds
240° at 4 knots Greater than 6 miles
  • Broken at 4,000' AGL
From Jul-23 @ 08:00 to Jul-23 @ 14:00
FM230800 00000KT 6SM BR OVC020
Visibility Clouds Conditions
6 miles
  • Overcast at 2,000' AGL
  • Mist
From Jul-23 @ 14:00 to Jul-23 @ 18:00
FM231400 VRB04KT P6SM BKN025
Wind Visibility Clouds
Variable at 4 knots Greater than 6 miles
  • Broken at 2,500' AGL
KTYS 221741Z 2218/2318 20008KT P6SM VCSH FEW018 BKN023 OVC050 TEMPO 2218/2222 4SM -TSRA BR SCT015 OVC023CB FM230100 24004KT P6SM BKN040 FM230800 00000KT 6SM BR OVC020 FM231400 VRB04KT P6SM BKN025
Issued Jul-22 @ 17:41 UTC
(3 hours ago)
Valid From Jul-22 @ 18:00 UTC
(2 hours ago)
Valid To Jul-23 @ 18:00 UTC
(in 22 hours)
Jul-22 @ 18:00 - Jul-23 @ 01:00
Wind Visibility
200° at 8 knots Greater than 6 miles
Clouds
  • Few at 1,800' AGL
  • Broken at 2,300' AGL
  • Overcast at 5,000' AGL
Temporary Jul-22 @ 18:00 - Jul-22 @ 22:00
Clouds
  • Scattered at 1,500' AGL
  • Overcast at 2,300' AGL
Conditions
  • Light Thunderstorm
  • Light Rain
  • Mist
From Jul-23 @ 01:00 - Jul-23 @ 08:00
Wind Visibility
240° at 4 knots Greater than 6 miles
Clouds
  • Broken at 4,000' AGL
From Jul-23 @ 08:00 - Jul-23 @ 14:00
Clouds
  • Overcast at 2,000' AGL
Conditions
  • Mist
From Jul-23 @ 14:00 - Jul-23 @ 18:00
Wind Visibility
Variable at 4 knots Greater than 6 miles
Clouds
  • Broken at 2,500' AGL